Accueil
METAR-TAF:

METAR-TAF

Aéroports :

Wittering, Angleterre

latitude: 52-37N, longitude: 000-28W, altitude: 84 m

Observation

Le bulletin a été fait il y a 48 minutes, à 05:50 UTC
Vent 6 kt de sud/sud-ouest
Température 11°C
Humidité 100%
Pression 1014 hPa
Visibilité 10 km ou plus

METAR: EGXT 240550Z AUTO 21006KT 9999 NCD 11/11 Q1014

Heure: 07:38 (06:38 UTC)

Prévision

Le bulletin a été fait il y a 41 minutes, à 05:57 UTC
Prévision valable du 24 à 07 UTC au 24 à 15 UTC
Vent 12 kt de ouest/sud-ouest
Visibilité 10 km ou plus
Quelques nuages à une hauteur de 3000 ft
Nuages épars à une hauteur de 4000 ft

TAF: EGXT 240557Z 2407/2415 25012KT 9999 FEW030 SCT040

Observations et prévisions météorologiques de plus de 4000 aéroports (messages METAR et TAF).

Les stations disponibles sont représentées par des disques jaunes et rouges sur la carte.

Passer la souris dessus pour voir le nom de la station.

Cliquer dessus pour voir les observations et prévisions météorologiques.

Pour changer de carte: cliquez sur les boutons verts avec une croix noire pour zoomer, sur le bouton vert avec un tiret pour effectuer un zoom arrière, ou sur les flèches vertes pour les cartes adjacentes.


METAR-TAF: